Time;durP1;ratioP1;P1;durP2;ratioP2;P2;SDS_P1;SDS_P2;PMS_P1;PMS_P2;Temp;Humidity;BMP_temperature;BMP_pressure;BME280_temperature;BME280_humidity;BME280_pressure;Samples;Min_cycle;Max_cycle;Signal;HPM_P1;HPM_P2
2022/12/19 00:00:32;;;;;;;56.75;28.08;;;;;;;-4.42;78.85;101150.53;10422763;28;20038;-72
2022/12/19 00:05:38;;;;;;;56.10;27.25;;;;;;;-4.68;79.60;101142.47;10425123;28;20041;-71
2022/12/19 00:10:40;;;;;;;58.95;27.13;;;;;;;-4.44;78.26;101131.59;10424923;28;20056;-72
2022/12/19 00:15:42;;;;;;;54.67;27.13;;;;;;;-4.49;78.02;101139.06;10406370;28;20056;-71
2022/12/19 00:20:43;;;;;;;54.17;27.85;;;;;;;-4.45;77.63;101145.25;10423949;28;20548;-71
2022/12/19 00:25:45;;;;;;;51.22;25.55;;;;;;;-4.56;78.53;101137.03;10423313;28;20570;-72
2022/12/19 00:30:47;;;;;;;50.58;26.88;;;;;;;-4.47;77.41;101146.84;10421683;28;20033;-72
2022/12/19 00:35:49;;;;;;;49.20;25.50;;;;;;;-4.52;77.57;101138.94;10404001;28;20049;-71
2022/12/19 00:40:50;;;;;;;44.10;23.95;;;;;;;-4.56;77.13;101126.75;10421581;28;20398;-71
2022/12/19 00:45:52;;;;;;;47.47;25.35;;;;;;;-4.67;77.41;101122.84;10403753;28;20119;-73
2022/12/19 00:51:06;;;;;;;51.10;25.88;;;;;;;-4.64;77.12;101118.72;10421294;28;20061;-71
2022/12/19 00:56:20;;;;;;;43.80;24.55;;;;;;;-4.63;76.63;101123.03;10421629;28;20041;-71
2022/12/19 01:01:33;;;;;;;42.00;23.70;;;;;;;-4.63;75.93;101107.66;10402709;28;20042;-72
2022/12/19 01:06:35;;;;;;;47.13;24.50;;;;;;;-4.88;76.02;101103.03;10402734;28;20080;-72
2022/12/19 01:16:59;;;;;;;39.08;21.75;;;;;;;-4.85;74.55;101103.19;10419209;28;20103;-71
2022/12/19 01:22:00;;;;;;;38.80;22.05;;;;;;;-4.70;73.59;101100.47;10402124;28;20045;-71
2022/12/19 01:27:02;;;;;;;44.47;21.83;;;;;;;-4.71;73.56;101091.03;10420058;28;20128;-72
2022/12/19 01:32:05;;;;;;;42.92;22.05;;;;;;;-4.85;72.85;101085.25;10401602;28;20048;-72
2022/12/19 01:37:07;;;;;;;46.33;21.08;;;;;;;-4.82;73.38;101082.84;10402073;28;20112;-72
2022/12/19 01:42:20;;;;;;;50.45;23.30;;;;;;;-5.19;74.35;101082.75;10401169;28;20431;-72
2022/12/19 01:47:25;;;;;;;42.45;22.65;;;;;;;-5.23;75.02;101082.53;10401752;28;20091;-71
2022/12/19 01:52:27;;;;;;;43.92;22.02;;;;;;;-4.95;73.37;101080.50;10419174;28;20442;-71
2022/12/19 01:57:28;;;;;;;41.45;22.30;;;;;;;-5.07;73.70;101070.53;10401204;28;20053;-71
2022/12/19 02:02:36;;;;;;;38.22;21.63;;;;;;;-5.09;74.21;101063.56;10417238;28;20529;-72
2022/12/19 02:07:39;;;;;;;43.15;21.02;;;;;;;-5.14;73.93;101059.91;10417256;28;20041;-71
2022/12/19 02:12:43;;;;;;;46.22;22.95;;;;;;;-5.14;73.77;101047.97;10400237;28;20164;-72
2022/12/19 02:18:14;;;;;;;46.70;21.80;;;;;;;-5.16;73.19;101041.91;10399688;28;20051;-72
2022/12/19 02:23:35;;;;;;;39.45;21.23;;;;;;;-5.16;74.17;101034.22;10418652;28;20041;-72
2022/12/19 02:28:53;;;;;;;40.28;19.83;;;;;;;-5.21;73.63;101019.44;10400009;28;20045;-72
2022/12/19 02:34:19;;;;;;;35.15;19.35;;;;;;;-5.02;72.87;101014.34;10388694;23;20156;-70
2022/12/19 02:39:41;;;;;;;36.42;19.25;;;;;;;-5.15;73.96;101006.88;10374502;28;20096;-70
2022/12/19 02:44:50;;;;;;;34.08;18.65;;;;;;;-5.23;74.28;101021.03;10375404;28;20104;-70
2022/12/19 02:49:52;;;;;;;34.40;18.10;;;;;;;-5.08;73.29;101017.50;10374016;28;20136;-70
2022/12/19 02:54:59;;;;;;;29.33;17.60;;;;;;;-4.91;73.12;101022.56;10374259;28;20129;-70
2022/12/19 03:00:13;;;;;;;30.65;18.10;;;;;;;-4.99;73.49;101021.31;10358677;28;20038;-70
2022/12/19 03:05:43;;;;;;;26.83;17.73;;;;;;;-4.89;72.61;101036.31;10375947;28;20048;-70
2022/12/19 03:10:59;;;;;;;24.15;16.13;;;;;;;-4.77;73.70;101029.19;10374835;28;20565;-70
2022/12/19 03:16:06;;;;;;;27.08;16.95;;;;;;;-4.72;73.67;101024.25;10374195;28;20423;-70
2022/12/19 03:21:27;;;;;;;24.00;16.75;;;;;;;-4.66;73.11;101027.97;10374686;28;20042;-70
2022/12/19 03:27:02;;;;;;;27.75;16.40;;;;;;;-4.58;72.88;101046.28;10373462;28;20049;-70
2022/12/19 03:32:08;;;;;;;24.73;16.67;;;;;;;-4.48;73.83;101042.44;10374783;28;20053;-70
2022/12/19 03:37:17;;;;;;;27.05;16.27;;;;;;;-4.47;73.54;101050.22;10375448;28;20093;-70
2022/12/19 03:47:49;;;;;;;26.30;16.23;;;;;;;-4.50;74.37;101038.94;10374670;28;20046;-69
2022/12/19 03:53:16;;;;;;;25.17;16.45;;;;;;;-4.31;73.93;101044.06;10374241;28;20050;-69
2022/12/19 03:58:31;;;;;;;24.97;16.60;;;;;;;-4.13;74.20;101044.00;10372978;28;20424;-69
2022/12/19 04:03:34;;;;;;;26.33;16.23;;;;;;;-4.07;73.42;101051.97;10377913;28;20049;-71
2022/12/19 04:08:36;;;;;;;28.67;16.92;;;;;;;-4.01;73.73;101049.66;10379897;28;20073;-70
2022/12/19 04:13:58;;;;;;;24.77;15.55;;;;;;;-3.92;74.13;101047.50;10379266;28;20410;-70
2022/12/19 04:19:28;;;;;;;25.23;15.32;;;;;;;-3.93;74.68;101037.16;10380344;28;20068;-70
2022/12/19 04:24:35;;;;;;;21.77;14.88;;;;;;;-3.77;73.52;101062.66;10380074;28;20045;-70
2022/12/19 04:29:38;;;;;;;17.17;12.20;;;;;;;-3.72;73.94;101040.59;10381381;28;20045;-70
2022/12/19 04:34:39;;;;;;;24.95;15.90;;;;;;;-3.92;75.21;101042.34;10378942;28;20510;-70
2022/12/19 04:39:43;;;;;;;26.10;16.80;;;;;;;-3.65;75.17;101022.06;10379791;28;20078;-70
2022/12/19 04:44:45;;;;;;;32.95;18.20;;;;;;;-3.86;75.48;101008.34;10382001;28;20056;-70
2022/12/19 04:49:47;;;;;;;30.92;16.85;;;;;;;-3.76;75.81;101010.50;10379711;28;20038;-70
2022/12/19 04:54:48;;;;;;;34.42;18.60;;;;;;;-3.72;75.66;101014.91;10379074;28;20050;-70
2022/12/19 04:59:50;;;;;;;31.02;18.35;;;;;;;-3.84;76.98;101017.00;10379235;28;20038;-70
2022/12/19 05:04:52;;;;;;;39.95;18.45;;;;;;;-3.78;77.16;101021.50;10362469;28;20050;-70
2022/12/19 05:09:54;;;;;;;33.95;17.77;;;;;;;-3.65;76.29;101024.66;10379360;28;20044;-70
2022/12/19 05:14:55;;;;;;;35.25;20.05;;;;;;;-3.84;77.63;101035.84;10378452;28;20077;-70
2022/12/19 05:19:57;;;;;;;35.78;19.55;;;;;;;-3.87;77.89;101034.84;10378187;28;20462;-70
2022/12/19 05:24:59;;;;;;;33.75;19.60;;;;;;;-3.64;77.28;101035.78;10377401;28;20046;-70
2022/12/19 05:30:01;;;;;;;35.67;18.77;;;;;;;-3.69;77.95;101037.31;10378487;28;20057;-70
2022/12/19 05:35:02;;;;;;;34.45;19.75;;;;;;;-3.57;76.80;101033.56;10377110;28;20128;-70
2022/12/19 05:40:05;;;;;;;30.98;19.25;;;;;;;-3.65;77.13;101036.63;10375543;28;20046;-70
2022/12/19 05:45:07;;;;;;;40.03;20.30;;;;;;;-3.61;77.30;101041.94;10376845;28;20444;-71
2022/12/19 05:50:09;;;;;;;43.28;23.05;;;;;;;-3.63;78.03;101047.81;10376480;28;20038;-71
2022/12/19 05:55:11;;;;;;;38.35;21.80;;;;;;;-3.60;79.07;101048.84;10376542;28;20125;-71
2022/12/19 06:00:13;;;;;;;48.15;21.73;;;;;;;-3.35;77.44;101044.72;10377564;28;20571;-71
2022/12/19 06:05:15;;;;;;;46.22;21.40;;;;;;;-3.45;77.63;101038.31;10376993;28;20061;-71
2022/12/19 06:10:17;;;;;;;43.35;20.65;;;;;;;-3.46;78.51;101025.41;10377601;28;20042;-71
2022/12/19 06:15:19;;;;;;;42.35;21.65;;;;;;;-3.40;78.42;101033.38;10374454;28;20045;-71
2022/12/19 06:20:21;;;;;;;35.85;21.00;;;;;;;-3.33;77.97;101048.22;10377610;28;20049;-72
2022/12/19 06:25:22;;;;;;;43.72;22.98;;;;;;;-3.23;77.61;101045.22;10375976;28;20406;-71
2022/12/19 06:30:24;;;;;;;42.30;21.08;;;;;;;-3.11;77.25;101039.66;10377033;28;20037;-71
2022/12/19 06:35:26;;;;;;;42.55;22.52;;;;;;;-3.03;77.40;101051.13;10374236;28;20499;-70
2022/12/19 06:45:47;;;;;;;44.60;22.15;;;;;;;-3.03;78.08;101047.69;10376003;28;20046;-70
2022/12/19 06:50:49;;;;;;;47.30;21.73;;;;;;;-3.01;77.44;101041.78;10375015;28;20342;-70
2022/12/19 06:55:54;;;;;;;49.42;23.17;;;;;;;-3.09;77.94;101030.31;10376529;28;20038;-70
2022/12/19 07:00:56;;;;;;;46.22;23.50;;;;;;;-3.06;78.76;101043.28;10375989;28;20041;-70
2022/12/19 07:05:58;;;;;;;44.05;22.60;;;;;;;-3.00;78.23;101025.53;10376175;28;20050;-70
2022/12/19 07:11:00;;;;;;;44.75;21.92;;;;;;;-2.97;77.83;101035.03;10372796;28;20380;-70
2022/12/19 07:16:03;;;;;;;47.88;24.02;;;;;;;-2.93;78.97;101039.50;10376605;28;20121;-70
2022/12/19 07:21:10;;;;;;;43.65;23.45;;;;;;;-2.93;78.86;101031.78;10375185;28;20493;-71
2022/12/19 07:26:12;;;;;;;53.47;25.08;;;;;;;-2.99;78.80;101028.97;10374796;28;20128;-70
2022/12/19 07:31:14;;;;;;;49.22;23.88;;;;;;;-2.86;78.72;101037.22;10374875;28;20049;-70
2022/12/19 07:36:16;;;;;;;50.30;24.65;;;;;;;-2.84;78.28;101025.28;10377741;28;20060;-71
2022/12/19 07:41:18;;;;;;;51.60;24.45;;;;;;;-2.81;79.22;101021.97;10381129;28;20137;-70
2022/12/19 07:46:20;;;;;;;57.90;26.55;;;;;;;-2.82;78.90;101036.53;10382666;28;20474;-72
2022/12/19 07:51:22;;;;;;;57.20;25.88;;;;;;;-2.82;78.62;101038.22;10383339;28;20045;-72
2022/12/19 07:56:24;;;;;;;52.70;25.38;;;;;;;-2.52;77.81;101035.94;10383190;28;20042;-70
2022/12/19 08:01:26;;;;;;;47.90;25.77;;;;;;;-2.50;77.67;101036.84;10382114;28;20038;-71
2022/12/19 08:06:30;;;;;;;53.92;25.15;;;;;;;-2.51;77.79;101029.97;10381678;28;20054;-71
2022/12/19 08:11:34;;;;;;;44.92;23.92;;;;;;;-2.35;77.18;101036.53;10380746;28;20109;-70
2022/12/19 08:16:36;;;;;;;45.25;23.63;;;;;;;-2.35;77.10;101044.25;10381244;28;20057;-69
2022/12/19 08:21:58;;;;;;;40.88;22.42;;;;;;;-2.26;76.37;101029.13;10380870;28;20584;-70
2022/12/19 08:26:59;;;;;;;38.58;22.33;;;;;;;-1.97;75.72;101014.72;10362571;28;20496;-70
2022/12/19 08:32:01;;;;;;;49.72;23.83;;;;;;;-2.04;76.11;101002.44;10406019;23;20419;-75
2022/12/19 08:37:03;;;;;;;44.72;22.77;;;;;;;-1.82;75.08;101001.47;10422276;28;20073;-74
2022/12/19 08:42:04;;;;;;;42.42;24.40;;;;;;;-1.81;74.77;100986.06;10421270;28;20041;-75
2022/12/19 08:47:06;;;;;;;44.53;23.45;;;;;;;-1.84;74.41;100975.66;10422026;28;20056;-74
2022/12/19 08:52:08;;;;;;;43.80;22.98;;;;;;;-1.68;74.93;100977.03;10419891;28;20069;-75
2022/12/19 08:57:10;;;;;;;39.20;22.50;;;;;;;-1.66;74.27;100966.78;10420308;28;20045;-74
2022/12/19 09:02:11;;;;;;;37.00;21.75;;;;;;;-1.47;74.23;100963.06;10402953;28;20048;-74
2022/12/19 09:07:13;;;;;;;41.92;23.67;;;;;;;-1.62;74.61;100964.34;10419987;28;20116;-74
2022/12/19 09:12:16;;;;;;;48.20;25.17;;;;;;;-1.47;74.80;100950.19;10420081;28;20045;-75
2022/12/19 09:17:18;;;;;;;58.72;24.40;;;;;;;-1.26;75.02;100945.69;10420382;28;20045;-75
2022/12/19 09:22:19;;;;;;;46.53;24.38;;;;;;;-1.36;75.28;100944.53;10419653;28;20042;-75
2022/12/19 09:27:28;;;;;;;46.88;24.90;;;;;;;-1.36;75.61;100938.50;10419392;28;20042;-77
2022/12/19 09:32:29;;;;;;;53.95;26.95;;;;;;;-1.19;76.36;100936.44;10401815;28;20052;-75
2022/12/19 09:37:31;;;;;;;53.97;26.88;;;;;;;-1.02;75.21;100925.78;10420170;28;20502;-75
2022/12/19 09:43:04;;;;;;;56.72;27.20;;;;;;;-1.06;75.56;100930.81;10401320;28;20047;-76
2022/12/19 09:48:14;;;;;;;56.58;28.35;;;;;;;-1.13;75.58;100929.75;10419925;28;20056;-76
2022/12/19 09:53:35;;;;;;;57.67;28.38;;;;;;;-1.00;76.03;100917.22;10420536;28;20057;-76
2022/12/19 09:58:43;;;;;;;59.35;29.20;;;;;;;-1.05;76.41;100907.63;10419174;28;20052;-76
2022/12/19 10:03:53;;;;;;;61.00;28.58;;;;;;;-1.04;76.72;100911.97;10419373;28;20037;-77
2022/12/19 10:08:55;;;;;;;58.60;28.50;;;;;;;-0.97;76.32;100914.69;10419384;28;20037;-77
2022/12/19 10:14:55;;;;;;;53.85;28.10;;;;;;;-0.87;76.92;100907.28;10418357;28;20041;-76
2022/12/19 10:20:12;;;;;;;49.40;26.65;;;;;;;-0.57;75.33;100902.09;10416342;28;20050;-76
2022/12/19 10:25:44;;;;;;;55.40;26.90;;;;;;;-0.58;75.30;100894.28;10418389;28;20548;-76
2022/12/19 10:31:15;;;;;;;54.83;25.95;;;;;;;-0.68;76.13;100890.59;10415798;28;20470;-77
2022/12/19 10:36:24;;;;;;;51.65;26.40;;;;;;;-0.58;75.33;100889.13;10401827;28;20049;-76
2022/12/19 10:41:50;;;;;;;53.67;28.33;;;;;;;-0.34;74.52;100899.25;10418361;28;20072;-77
2022/12/19 10:46:51;;;;;;;52.95;25.27;;;;;;;-0.34;74.61;100887.22;10417222;28;20395;-77
2022/12/19 10:51:59;;;;;;;50.63;26.45;;;;;;;-0.34;73.65;100879.47;10416612;28;20036;-76
2022/12/19 10:57:18;;;;;;;49.10;25.25;;;;;;;-0.17;73.57;100876.44;10399231;28;20042;-77
2022/12/19 11:02:47;;;;;;;46.22;26.35;;;;;;;-0.18;73.68;100875.53;10418271;28;20372;-76
2022/12/19 11:08:04;;;;;;;51.88;26.20;;;;;;;-0.06;73.23;100868.09;10397155;28;20060;-77
2022/12/19 11:13:20;;;;;;;53.92;26.15;;;;;;;-0.06;73.33;100854.31;10421166;28;20037;-76
2022/12/19 11:18:44;;;;;;;48.35;25.52;;;;;;;0.14;72.85;100859.97;10424343;28;20041;-75
2022/12/19 11:24:17;;;;;;;48.63;27.65;;;;;;;0.09;73.45;100846.94;10405618;28;20044;-75
2022/12/19 11:29:48;;;;;;;55.72;28.40;;;;;;;0.06;73.12;100833.94;10423218;28;20488;-75
2022/12/19 11:35:18;;;;;;;56.03;27.65;;;;;;;0.32;72.11;100818.16;10422477;28;20129;-74
2022/12/19 11:40:43;;;;;;;46.45;25.80;;;;;;;0.20;72.83;100818.72;10405456;28;20394;-74
2022/12/19 11:46:07;;;;;;;47.60;26.05;;;;;;;0.10;74.79;100819.38;10422945;28;20065;-75
2022/12/19 11:51:22;;;;;;;62.25;27.58;;;;;;;0.20;75.05;100806.69;10422696;28;20082;-75
2022/12/19 11:56:26;;;;;;;57.05;27.48;;;;;;;0.12;75.31;100809.91;10422120;28;20048;-72
2022/12/19 12:01:42;;;;;;;53.92;27.38;;;;;;;0.06;76.71;100805.50;10421661;28;20384;-74
2022/12/19 12:06:50;;;;;;;54.25;26.98;;;;;;;-0.08;76.80;100800.00;10422010;28;20129;-75
2022/12/19 12:12:02;;;;;;;56.83;28.15;;;;;;;-0.15;77.74;100786.91;10422095;28;20045;-75
2022/12/19 12:17:30;;;;;;;54.95;27.73;;;;;;;0.00;77.80;100787.28;10408165;28;20116;-75
2022/12/19 12:23:17;;;;;;;61.17;28.30;;;;;;;-0.04;78.90;100782.88;10420362;28;20069;-74
2022/12/19 12:28:59;;;;;;;58.50;29.90;;;;;;;-0.15;79.81;100779.16;10421032;28;20045;-73
2022/12/19 12:34:50;;;;;;;69.00;30.02;;;;;;;-0.27;78.78;100778.03;10406113;28;20121;-73
2022/12/19 12:40:30;;;;;;;72.32;30.75;;;;;;;-0.15;79.00;100773.97;10420775;28;20088;-73
2022/12/19 12:45:40;;;;;;;57.90;29.00;;;;;;;-0.20;79.13;100753.19;10421069;28;20058;-74
2022/12/19 12:50:45;;;;;;;67.63;30.02;;;;;;;-0.01;77.96;100751.91;10420635;28;20037;-73
2022/12/19 12:55:57;;;;;;;63.97;27.90;;;;;;;-0.12;79.20;100738.75;10420319;28;20116;-73
2022/12/19 13:01:11;;;;;;;63.25;28.95;;;;;;;-0.18;81.22;100732.56;10401794;28;20072;-74
2022/12/19 13:06:44;;;;;;;62.58;29.45;;;;;;;-0.16;82.43;100741.22;10420750;28;20041;-74
2022/12/19 13:17:31;;;;;;;54.42;29.65;;;;;;;-0.23;85.24;100736.75;10419004;28;20057;-74
2022/12/19 13:22:32;;;;;;;46.92;26.65;;;;;;;-0.22;85.49;100720.41;10401556;28;20049;-73
2022/12/19 13:27:38;;;;;;;57.03;29.80;;;;;;;-0.35;88.60;100727.03;10418417;28;20105;-72
2022/12/19 13:32:40;;;;;;;61.03;32.20;;;;;;;-0.14;87.86;100727.50;10418815;28;20045;-73
2022/12/19 13:37:44;;;;;;;55.72;30.52;;;;;;;-0.32;90.29;100730.53;10418990;28;20045;-74
2022/12/19 13:48:49;;;;;;;63.83;31.23;;;;;;;-0.14;91.95;100714.56;10418341;28;20096;-73
2022/12/19 13:53:54;;;;;;;71.03;32.85;;;;;;;-0.21;94.19;100715.28;10399909;28;20136;-74
2022/12/19 13:59:03;;;;;;;70.68;33.33;;;;;;;-0.32;96.31;100712.44;10417700;28;20037;-74
2022/12/19 14:04:10;;;;;;;76.88;32.65;;;;;;;-0.29;96.08;100709.94;10399516;28;20042;-72
2022/12/19 14:09:39;;;;;;;81.82;35.92;;;;;;;-0.28;97.39;100701.34;10417346;28;20042;-73
2022/12/19 14:15:13;;;;;;;67.82;32.58;;;;;;;-0.37;97.93;100708.00;10417598;28;20049;-71
2022/12/19 14:20:22;;;;;;;66.25;32.42;;;;;;;-0.43;99.88;100707.88;10398737;28;20095;-71
2022/12/19 14:25:51;;;;;;;79.30;37.15;;;;;;;-0.65;100.00;100712.53;10416896;28;20073;-71
2022/12/19 14:31:16;;;;;;;83.43;38.85;;;;;;;-0.64;100.00;100698.78;10416633;28;20044;-71
2022/12/19 14:36:26;;;;;;;84.25;37.08;;;;;;;-0.58;100.00;100701.50;10433456;22;20625;-65
2022/12/19 14:47:21;;;;;;;88.78;40.13;;;;;;;-0.64;100.00;100697.91;10400047;28;20056;-65
2022/12/19 14:52:45;;;;;;;81.15;38.70;;;;;;;-0.76;100.00;100711.38;10416874;28;20104;-65
2022/12/19 14:58:23;;;;;;;87.35;38.70;;;;;;;-0.77;100.00;100709.66;10398666;28;20422;-65
2022/12/19 15:04:03;;;;;;;79.70;37.65;;;;;;;-0.65;100.00;100703.91;10416550;28;20046;-66
2022/12/19 15:09:26;;;;;;;82.18;38.80;;;;;;;-0.60;100.00;100700.59;10416883;28;20513;-66
2022/12/19 15:14:48;;;;;;;87.20;38.33;;;;;;;-0.65;100.00;100688.44;10416987;28;20038;-66
2022/12/19 15:20:00;;;;;;;90.43;39.53;;;;;;;-0.58;100.00;100700.63;10415890;28;20041;-67
2022/12/19 15:25:02;;;;;;;88.28;38.10;;;;;;;-0.62;100.00;100709.13;10415542;28;20042;-66
2022/12/19 15:30:13;;;;;;;76.93;35.85;;;;;;;-0.64;100.00;100701.38;10398816;28;20046;-66
2022/12/19 15:35:17;;;;;;;83.43;37.78;;;;;;;-0.55;100.00;100700.72;10398822;28;20060;-65
2022/12/19 15:40:21;;;;;;;55.67;27.47;;;;;;;-0.39;100.00;100714.88;10416404;28;20433;-65
2022/12/19 15:45:23;;;;;;;81.00;37.80;;;;;;;-0.42;100.00;100694.13;10415241;28;20129;-64
2022/12/19 15:50:28;;;;;;;85.18;40.08;;;;;;;-0.28;100.00;100677.22;10416224;28;20046;-66
2022/12/19 15:55:30;;;;;;;75.47;36.00;;;;;;;-0.22;100.00;100671.31;10399152;28;20045;-66
2022/12/19 16:00:35;;;;;;;83.43;38.03;;;;;;;-0.40;100.00;100672.69;10420023;28;20052;-65
2022/12/19 16:05:36;;;;;;;78.43;36.42;;;;;;;-0.29;100.00;100672.91;10407334;28;20052;-66
2022/12/19 16:10:39;;;;;;;84.68;38.15;;;;;;;-0.26;100.00;100668.69;10423745;28;20041;-66
2022/12/19 16:15:41;;;;;;;73.07;35.22;;;;;;;-0.20;100.00;100659.31;10422514;28;20124;-65
2022/12/19 16:20:43;;;;;;;70.45;34.03;;;;;;;-0.31;100.00;100664.22;10421334;28;20037;-65
2022/12/19 16:25:49;;;;;;;65.57;32.83;;;;;;;-0.19;100.00;100658.47;10422928;28;20041;-65
2022/12/19 16:30:51;;;;;;;63.88;31.38;;;;;;;-0.32;100.00;100659.91;10423273;28;20038;-66
2022/12/19 16:35:57;;;;;;;62.15;31.00;;;;;;;-0.13;100.00;100649.16;10422435;28;20132;-66
2022/12/19 16:41:14;;;;;;;70.90;32.25;;;;;;;-0.08;100.00;100659.59;10421894;28;20041;-66
2022/12/19 16:46:19;;;;;;;63.58;32.30;;;;;;;-0.14;100.00;100659.44;10421526;28;20128;-66
2022/12/19 16:51:23;;;;;;;66.03;31.27;;;;;;;-0.17;100.00;100657.69;10403230;28;20072;-68
2022/12/19 16:56:32;;;;;;;64.80;30.52;;;;;;;-0.19;100.00;100658.47;10406741;28;20056;-67
2022/12/19 17:01:34;;;;;;;58.45;30.50;;;;;;;-0.06;100.00;100668.22;10425548;28;20140;-65
2022/12/19 17:06:36;;;;;;;50.53;29.48;;;;;;;-0.07;100.00;100659.59;10405340;28;20046;-69
2022/12/19 17:11:39;;;;;;;56.78;31.05;;;;;;;-0.17;100.00;100660.25;10423135;28;20560;-70
2022/12/19 17:16:41;;;;;;;66.63;32.17;;;;;;;-0.14;100.00;100655.13;10425539;28;20045;-70
2022/12/19 17:21:43;;;;;;;58.30;31.83;;;;;;;-0.01;100.00;100651.97;10422230;28;20034;-69
2022/12/19 17:26:45;;;;;;;55.30;30.45;;;;;;;0.05;100.00;100656.41;10404067;28;20068;-70
2022/12/19 17:31:47;;;;;;;47.97;28.52;;;;;;;-0.01;100.00;100651.97;10403409;28;20038;-71
2022/12/19 17:36:49;;;;;;;50.65;30.05;;;;;;;0.03;100.00;100652.91;10423057;28;20088;-70
2022/12/19 17:41:53;;;;;;;55.35;29.95;;;;;;;0.07;100.00;100654.72;10405137;28;20132;-71
2022/12/19 17:46:55;;;;;;;49.33;30.40;;;;;;;0.05;100.00;100651.25;10403610;28;20057;-70
2022/12/19 17:51:58;;;;;;;49.78;30.55;;;;;;;0.08;100.00;100653.00;10420491;28;20502;-70
2022/12/19 17:57:00;;;;;;;50.13;29.58;;;;;;;-0.07;100.00;100653.56;10402838;28;20491;-70
2022/12/19 18:02:01;;;;;;;56.15;32.03;;;;;;;0.03;100.00;100652.91;10423944;28;20097;-70
2022/12/19 18:07:12;;;;;;;56.45;31.00;;;;;;;0.04;100.00;100644.31;10405555;28;20120;-71
2022/12/19 18:12:14;;;;;;;54.55;31.95;;;;;;;-0.14;100.00;100646.53;10404478;28;20399;-71
2022/12/19 18:17:21;;;;;;;57.72;32.80;;;;;;;0.04;100.00;100654.66;10422473;28;20146;-69
2022/12/19 18:22:23;;;;;;;57.15;32.75;;;;;;;0.13;100.00;100649.66;10422458;28;20050;-70
2022/12/19 18:27:25;;;;;;;68.35;34.90;;;;;;;0.06;100.00;100639.19;10419908;28;20056;-70
2022/12/19 18:32:27;;;;;;;65.65;33.67;;;;;;;0.02;100.00;100640.84;10401170;28;20045;-69
2022/12/19 18:37:29;;;;;;;64.40;32.72;;;;;;;0.18;100.00;100645.50;10401503;28;20147;-70
2022/12/19 18:42:30;;;;;;;58.00;34.13;;;;;;;0.23;100.00;100638.69;10403448;28;20088;-70
2022/12/19 18:47:32;;;;;;;63.35;34.17;;;;;;;0.18;100.00;100640.31;10402364;28;20095;-70
2022/12/19 18:52:34;;;;;;;62.47;34.03;;;;;;;-0.04;100.00;100636.41;10404005;28;20092;-70
2022/12/19 18:57:36;;;;;;;71.38;36.38;;;;;;;-0.12;100.00;100643.13;10419515;28;20104;-71
2022/12/19 19:02:42;;;;;;;66.43;35.13;;;;;;;0.08;100.00;100629.75;10401924;28;20098;-71
2022/12/19 19:07:45;;;;;;;63.03;35.10;;;;;;;0.08;100.00;100616.81;10405210;28;20050;-70
2022/12/19 19:12:49;;;;;;;66.40;34.97;;;;;;;0.15;100.00;100618.69;10403200;28;20765;-70
2022/12/19 19:17:56;;;;;;;55.08;33.83;;;;;;;0.27;100.00;100600.84;10402633;28;20463;-72
2022/12/19 19:22:59;;;;;;;60.40;32.92;;;;;;;0.15;100.00;100616.13;10420761;28;20048;-72
2022/12/19 19:28:01;;;;;;;64.78;36.40;;;;;;;0.26;100.00;100606.84;10422017;28;20045;-72
2022/12/19 19:33:15;;;;;;;66.53;34.83;;;;;;;0.09;100.00;100623.72;10404362;28;20053;-72
2022/12/19 19:38:18;;;;;;;69.68;35.50;;;;;;;0.22;100.00;100624.03;10425844;28;20048;-73
2022/12/19 19:43:20;;;;;;;64.18;35.65;;;;;;;0.06;100.00;100628.84;10425276;28;20136;-72
2022/12/19 19:48:22;;;;;;;60.75;34.03;;;;;;;0.26;100.00;100619.75;10428437;28;20037;-71
2022/12/19 19:53:24;;;;;;;63.22;34.17;;;;;;;0.21;100.00;100600.69;10408723;28;20037;-71
2022/12/19 19:58:27;;;;;;;55.65;32.97;;;;;;;0.21;100.00;100588.66;10427353;28;20100;-71
2022/12/19 20:03:29;;;;;;;60.63;33.22;;;;;;;0.33;100.00;100584.56;10427490;28;20514;-71
2022/12/19 20:08:31;;;;;;;57.75;33.28;;;;;;;0.17;100.00;100591.16;10427079;28;20046;-71
2022/12/19 20:13:41;;;;;;;49.47;30.60;;;;;;;0.40;100.00;100587.28;10411893;28;20042;-71
2022/12/19 20:18:48;;;;;;;54.20;30.60;;;;;;;0.33;100.00;100582.84;10426993;28;20045;-70
2022/12/19 20:23:50;;;;;;;53.90;31.50;;;;;;;0.35;100.00;100572.50;10411123;28;20422;-71
2022/12/19 20:28:52;;;;;;;52.55;32.50;;;;;;;0.33;100.00;100562.16;10425722;28;20574;-71
2022/12/19 20:33:55;;;;;;;49.15;31.23;;;;;;;0.46;100.00;100561.53;10425532;22;20076;-74
2022/12/19 20:38:56;;;;;;;51.30;29.88;;;;;;;0.25;100.00;100553.38;10380349;28;20048;-73
2022/12/19 20:43:58;;;;;;;51.55;31.25;;;;;;;0.38;100.00;100550.16;10362160;28;20518;-74
2022/12/19 20:49:01;;;;;;;52.05;30.42;;;;;;;0.17;100.00;100548.06;10380416;28;20503;-74
2022/12/19 20:54:04;;;;;;;52.22;31.33;;;;;;;0.35;100.00;100549.25;10379232;28;20057;-74
2022/12/19 20:59:05;;;;;;;53.38;30.92;;;;;;;0.34;100.00;100532.00;10362647;28;20133;-74
2022/12/19 21:04:07;;;;;;;58.42;33.53;;;;;;;0.19;100.00;100546.41;10378894;28;20040;-74
2022/12/19 21:09:10;;;;;;;57.53;32.45;;;;;;;0.22;100.00;100548.16;10380410;28;20042;-72
2022/12/19 21:14:12;;;;;;;57.25;33.33;;;;;;;0.25;100.00;100522.34;10381050;28;20038;-73
2022/12/19 21:19:13;;;;;;;59.10;33.15;;;;;;;0.05;100.00;100536.66;10378832;28;20042;-73
2022/12/19 21:24:16;;;;;;;57.22;33.47;;;;;;;0.07;100.00;100528.06;10378458;28;20038;-72
2022/12/19 21:29:18;;;;;;;69.47;34.88;;;;;;;0.15;100.00;100567.84;10378863;28;20093;-72
2022/12/19 21:34:20;;;;;;;61.67;35.03;;;;;;;0.17;100.00;100554.94;10378100;28;20037;-73
2022/12/19 21:39:24;;;;;;;70.25;35.85;;;;;;;0.03;100.00;100544.34;10376644;28;20049;-73
2022/12/19 21:44:26;;;;;;;59.80;31.30;;;;;;;0.21;100.00;100536.94;10377955;28;20050;-73
2022/12/19 21:49:27;;;;;;;65.18;34.55;;;;;;;0.21;99.47;100541.25;10376520;28;20053;-72
2022/12/19 21:54:29;;;;;;;67.88;35.55;;;;;;;0.12;99.45;100533.31;10376588;28;20471;-73
2022/12/19 21:59:31;;;;;;;75.53;36.65;;;;;;;0.02;100.00;100550.38;10376165;28;20415;-72
2022/12/19 22:04:32;;;;;;;66.30;34.22;;;;;;;0.21;98.43;100546.41;10375112;28;20503;-72
2022/12/19 22:09:34;;;;;;;71.03;35.13;;;;;;;0.15;98.84;100535.97;10376443;28;20050;-72
2022/12/19 22:14:36;;;;;;;72.45;36.85;;;;;;;0.02;99.43;100546.91;10376027;28;20050;-73
2022/12/19 22:19:37;;;;;;;66.47;33.45;;;;;;;0.10;100.00;100545.34;10375118;28;20112;-73
2022/12/19 22:24:39;;;;;;;72.97;36.72;;;;;;;-0.09;100.00;100555.34;10375565;28;20041;-71
2022/12/19 22:29:41;;;;;;;72.07;37.05;;;;;;;-0.08;100.00;100553.63;10375298;28;20099;-72
2022/12/19 22:34:47;;;;;;;74.38;35.25;;;;;;;-0.06;100.00;100567.44;10375458;28;20054;-72
2022/12/19 22:39:49;;;;;;;70.60;36.42;;;;;;;-0.01;99.41;100550.31;10376062;28;20042;-72
2022/12/19 22:44:51;;;;;;;68.15;35.40;;;;;;;0.07;99.48;100556.50;10376036;28;20061;-72
2022/12/19 22:49:53;;;;;;;75.43;35.72;;;;;;;0.04;99.71;100566.78;10375622;28;20037;-72
2022/12/19 22:54:55;;;;;;;64.10;33.85;;;;;;;0.16;98.14;100581.66;10375073;28;20049;-72
2022/12/19 22:59:56;;;;;;;69.47;34.30;;;;;;;0.10;98.82;100589.31;10374803;28;20108;-72
2022/12/19 23:04:58;;;;;;;63.92;34.22;;;;;;;0.16;98.38;100586.81;10374604;28;20089;-72
2022/12/19 23:10:00;;;;;;;68.65;35.13;;;;;;;-0.03;98.77;100576.13;10379890;28;20049;-71
2022/12/19 23:15:02;;;;;;;70.63;34.75;;;;;;;0.04;99.18;100565.91;10382562;28;20408;-72
2022/12/19 23:20:07;;;;;;;71.18;34.92;;;;;;;-0.08;99.79;100554.50;10383752;28;20049;-73
2022/12/19 23:25:09;;;;;;;69.50;35.70;;;;;;;-0.06;99.76;100568.31;10382953;28;20112;-71
2022/12/19 23:30:11;;;;;;;69.85;35.15;;;;;;;-0.09;99.72;100576.03;10380636;28;20546;-70
2022/12/19 23:35:13;;;;;;;69.55;35.28;;;;;;;-0.12;100.00;100582.84;10380729;28;20046;-72